createdAt,value
2023-03-26T00:01:18.656Z,99505.06
2023-03-26T00:03:45.247Z,99500.94
2023-03-26T00:06:13.999Z,99509.09
2023-03-26T00:08:42.444Z,99435.97
2023-03-26T00:11:12.868Z,99496.38
2023-03-26T00:13:39.801Z,99476.59
2023-03-26T00:16:06.689Z,99484.63
2023-03-26T00:18:33.854Z,99486.22
2023-03-26T00:21:06.168Z,99472.44
2023-03-26T00:23:34.434Z,99461.69
2023-03-26T00:26:02.611Z,99456.66
2023-03-26T00:28:29.975Z,99448.13
2023-03-26T00:31:02.179Z,99407.66
2023-03-26T00:33:29.685Z,99442.34
2023-03-26T00:35:58.020Z,99420.59
2023-03-26T00:38:25.740Z,99381.66
2023-03-26T00:40:52.556Z,99404.59
2023-03-26T00:43:20.546Z,99392.63
2023-03-26T00:45:54.837Z,99391.41
2023-03-26T00:48:34.246Z,99387.22
2023-03-26T00:51:10.471Z,99368.47
2023-03-26T00:53:38.451Z,99361.19
2023-03-26T00:56:06.860Z,99361.25
2023-03-26T00:58:34.236Z,99362.06
2023-03-26T01:01:04.095Z,99348.44
2023-03-26T01:03:34.204Z,99280.69
2023-03-26T01:06:39.735Z,99337.38
2023-03-26T01:09:16.392Z,99354.16
2023-03-26T01:11:43.974Z,99320.72
2023-03-26T01:14:14.954Z,99299.53
2023-03-26T01:16:51.701Z,99301.75
2023-03-26T01:19:32.243Z,99299.53
2023-03-26T01:21:58.885Z,99252.50
2023-03-26T01:24:25.380Z,99256.91
2023-03-26T01:27:01.490Z,99236.44
2023-03-26T01:29:34.053Z,99233.44
2023-03-26T01:32:36.100Z,99226.94
2023-03-26T01:35:15.949Z,99209.81
2023-03-26T01:38:02.579Z,99188.50
2023-03-26T01:40:36.075Z,99185.03
2023-03-26T01:43:08.903Z,99159.13
2023-03-26T01:45:39.690Z,99099.88
2023-03-26T01:48:07.064Z,99121.13
2023-03-26T01:50:33.636Z,99106.97
2023-03-26T01:53:00.848Z,99077.81
2023-03-26T01:55:35.112Z,99069.91
2023-03-26T01:58:29.035Z,99000.50
2023-03-26T02:01:08.885Z,98970.09
2023-03-26T02:03:43.618Z,98987.50
2023-03-26T02:06:22.269Z,99017.31
2023-03-26T02:09:06.962Z,98963.19
2023-03-26T02:11:36.064Z,98982.84
2023-03-26T02:14:04.971Z,98927.72
2023-03-26T02:16:31.939Z,98913.75
2023-03-26T02:18:58.490Z,98829.53
2023-03-26T02:21:26.824Z,98872.81
2023-03-26T02:23:56.308Z,98861.44
2023-03-26T02:26:23.384Z,98781.75
2023-03-26T02:28:50.191Z,98794.81
2023-03-26T02:31:16.793Z,98736.50
2023-03-26T02:33:43.521Z,98795.38
2023-03-26T02:36:11.003Z,98733.09
2023-03-26T02:38:37.534Z,98703.91
2023-03-26T02:41:04.698Z,98787.94
2023-03-26T02:43:31.320Z,98738.00
2023-03-26T02:45:58.152Z,98747.09
2023-03-26T02:48:25.064Z,98762.09
2023-03-26T02:50:51.993Z,98745.97
2023-03-26T02:53:19.248Z,98747.66
2023-03-26T02:55:45.672Z,98728.72
2023-03-26T02:58:12.243Z,98738.66
2023-03-26T03:00:38.750Z,98673.47
2023-03-26T03:03:05.329Z,98699.84
2023-03-26T03:05:33.165Z,98680.88
2023-03-26T03:07:59.870Z,98714.38
2023-03-26T03:10:27.672Z,98700.31
2023-03-26T03:12:54.499Z,98645.59
2023-03-26T03:15:21.078Z,98644.47
2023-03-26T03:17:47.539Z,98636.31
2023-03-26T03:20:14.430Z,98690.66
2023-03-26T03:22:41.414Z,98681.06
2023-03-26T03:25:08.960Z,98651.81
2023-03-26T03:27:35.874Z,98662.53
2023-03-26T03:30:02.305Z,98579.06
2023-03-26T03:32:28.824Z,98633.28
2023-03-26T03:34:55.372Z,98565.16
2023-03-26T03:37:21.910Z,98583.75
2023-03-26T03:39:48.528Z,98596.94
2023-03-26T03:42:15.047Z,98565.09
2023-03-26T03:44:41.667Z,98563.00
2023-03-26T03:47:08.211Z,98566.84
2023-03-26T03:49:34.786Z,98536.13
2023-03-26T03:52:01.318Z,98533.19
2023-03-26T03:54:27.795Z,98455.53
2023-03-26T03:56:54.396Z,98512.03
2023-03-26T03:59:20.928Z,98503.09
2023-03-26T04:01:47.518Z,98483.69
2023-03-26T04:04:14.285Z,98474.28
2023-03-26T04:06:40.812Z,98472.31
2023-03-26T04:09:07.475Z,98457.47
2023-03-26T04:11:35.038Z,98451.44
2023-03-26T04:14:01.594Z,98427.03
2023-03-26T04:16:28.400Z,98441.47
2023-03-26T04:18:55.256Z,98393.47
2023-03-26T04:21:22.689Z,98424.88
2023-03-26T04:23:49.244Z,98363.31
2023-03-26T04:26:17.996Z,98399.22
2023-03-26T04:28:57.300Z,98386.72
2023-03-26T04:31:26.078Z,98409.38
2023-03-26T04:33:52.791Z,98371.88
2023-03-26T04:36:28.109Z,98370.06
2023-03-26T04:38:56.665Z,98357.63
2023-03-26T04:41:23.138Z,98347.25
2023-03-26T04:43:49.680Z,98354.03
2023-03-26T04:46:17.395Z,98327.63
2023-03-26T04:48:44.841Z,98319.53
2023-03-26T04:51:14.515Z,98257.13
2023-03-26T04:53:41.014Z,98301.69
2023-03-26T04:56:35.567Z,98269.22
2023-03-26T04:59:02.886Z,98208.88
2023-03-26T05:01:29.527Z,98282.91
2023-03-26T05:03:57.573Z,98266.63
2023-03-26T05:06:27.786Z,98256.34
2023-03-26T05:08:54.827Z,98225.41
2023-03-26T05:11:21.304Z,98257.31
2023-03-26T05:13:47.894Z,98266.22
2023-03-26T05:16:14.553Z,98250.84
2023-03-26T05:18:41.202Z,98264.19
2023-03-26T05:21:07.832Z,98245.25
2023-03-26T05:23:34.452Z,98245.06
2023-03-26T05:26:02.110Z,98253.81
2023-03-26T05:28:28.792Z,98235.31
2023-03-26T05:30:55.512Z,98243.72
2023-03-26T05:33:22.575Z,98260.00
2023-03-26T05:35:59.657Z,98241.72
2023-03-26T05:38:27.240Z,98260.81
2023-03-26T05:40:58.405Z,98259.34
2023-03-26T05:43:25.435Z,98283.22
2023-03-26T05:45:52.034Z,98309.16
2023-03-26T05:48:18.776Z,98287.28
2023-03-26T05:50:51.072Z,98310.47
2023-03-26T05:53:18.383Z,98266.16
2023-03-26T05:55:46.535Z,98314.97
2023-03-26T05:58:13.672Z,98321.34
2023-03-26T06:00:40.128Z,98341.50
2023-03-26T06:03:07.685Z,98349.38
2023-03-26T06:05:37.643Z,98367.34
2023-03-26T06:08:04.388Z,98356.69
2023-03-26T06:10:31.006Z,98363.84
2023-03-26T06:12:57.629Z,98358.78
2023-03-26T06:15:24.154Z,98366.38
2023-03-26T06:17:50.730Z,98377.81
2023-03-26T06:20:17.310Z,98359.56
2023-03-26T06:22:43.855Z,98372.41
2023-03-26T06:25:10.313Z,98395.78
2023-03-26T06:27:36.737Z,98378.19
2023-03-26T06:30:03.758Z,98389.31
2023-03-26T06:32:30.354Z,98405.16
2023-03-26T06:34:56.901Z,98403.53
2023-03-26T06:37:23.508Z,98406.69
2023-03-26T06:39:50.034Z,98394.16
2023-03-26T06:42:16.691Z,98413.41
2023-03-26T06:44:43.228Z,98419.25
2023-03-26T06:47:09.743Z,98349.03
2023-03-26T06:49:36.228Z,98439.34
2023-03-26T06:52:02.810Z,98430.00
2023-03-26T06:54:29.389Z,98431.84
2023-03-26T06:56:57.031Z,98439.94
2023-03-26T06:59:23.613Z,98381.59
2023-03-26T07:01:50.075Z,98429.38
2023-03-26T07:04:16.860Z,98417.31
2023-03-26T07:06:43.424Z,98447.09
2023-03-26T07:09:09.882Z,98441.91
2023-03-26T07:11:37.703Z,98426.69
2023-03-26T07:14:04.471Z,98437.06
2023-03-26T07:16:31.050Z,98416.31
2023-03-26T07:18:57.750Z,98396.03
2023-03-26T07:21:24.588Z,98446.16
2023-03-26T07:23:51.541Z,98343.38
2023-03-26T07:26:46.263Z,98427.97
2023-03-26T07:29:42.873Z,98329.88
2023-03-26T07:32:28.855Z,98426.34
2023-03-26T07:34:59.898Z,98406.94
2023-03-26T07:37:40.177Z,98378.69
2023-03-26T07:40:22.502Z,98398.69
2023-03-26T07:43:53.811Z,98403.03
2023-03-26T07:46:28.275Z,98375.00
2023-03-26T07:48:55.036Z,98310.72
2023-03-26T07:51:21.892Z,98361.91
2023-03-26T07:53:48.798Z,98360.06
2023-03-26T07:56:19.007Z,98356.97
2023-03-26T07:59:08.814Z,98310.91
2023-03-26T08:02:27.815Z,98333.59
2023-03-26T08:04:54.380Z,98238.84
2023-03-26T08:07:42.094Z,98265.25
2023-03-26T08:10:20.795Z,98297.38
2023-03-26T08:13:24.952Z,98256.50
2023-03-26T08:16:10.056Z,98282.50
2023-03-26T08:18:50.930Z,98300.34
2023-03-26T08:21:23.984Z,98268.28
2023-03-26T08:24:07.172Z,98237.88
2023-03-26T08:26:59.289Z,98271.44
2023-03-26T08:29:28.750Z,98271.59
2023-03-26T08:31:56.584Z,98257.13
2023-03-26T08:34:23.708Z,98256.66
2023-03-26T08:36:50.204Z,98257.75
2023-03-26T08:39:16.834Z,98251.03
2023-03-26T08:41:49.104Z,98250.03
2023-03-26T08:44:21.512Z,98266.22
2023-03-26T08:47:12.474Z,98193.06
2023-03-26T08:49:57.802Z,98206.78
2023-03-26T08:52:30.070Z,98117.56
2023-03-26T08:55:25.873Z,98195.94
2023-03-26T08:58:16.785Z,98194.50
2023-03-26T09:01:05.238Z,98189.91
2023-03-26T09:04:09.676Z,98174.09
2023-03-26T09:06:39.106Z,98173.59
2023-03-26T09:09:40.764Z,98077.69
2023-03-26T09:12:07.251Z,98148.81
2023-03-26T09:14:50.841Z,98162.69
2023-03-26T09:17:36.273Z,98157.34
2023-03-26T09:20:40.491Z,98149.41
2023-03-26T09:23:14.603Z,98142.38
2023-03-26T09:26:14.190Z,98181.88
2023-03-26T09:28:43.399Z,98172.53
2023-03-26T09:31:51.431Z,98166.31
2023-03-26T09:34:33.258Z,98171.38
2023-03-26T09:37:25.289Z,98149.16
2023-03-26T09:40:04.211Z,98127.41
2023-03-26T09:42:56.126Z,98194.25
2023-03-26T09:45:36.675Z,98177.16
2023-03-26T09:48:08.989Z,98216.03
2023-03-26T09:50:43.050Z,98145.50
2023-03-26T09:53:18.473Z,98172.75
2023-03-26T09:56:10.797Z,98241.84
2023-03-26T09:59:09.591Z,98258.97
2023-03-26T10:02:05.212Z,98204.06
2023-03-26T10:05:01.159Z,98273.50
2023-03-26T10:07:39.702Z,98303.25
2023-03-26T10:10:48.711Z,98309.00
2023-03-26T10:13:42.073Z,98320.78
2023-03-26T10:16:21.518Z,98353.69
2023-03-26T10:19:32.996Z,98344.44
2023-03-26T10:22:17.404Z,98366.25
2023-03-26T10:24:50.328Z,98386.91
2023-03-26T10:27:54.434Z,98393.41
2023-03-26T10:30:56.850Z,98377.72
2023-03-26T10:33:54.024Z,98377.25
2023-03-26T10:36:34.362Z,98337.44
2023-03-26T10:39:37.184Z,98373.69
2023-03-26T10:42:23.878Z,98395.75
2023-03-26T10:44:59.095Z,98413.88
2023-03-26T10:47:34.723Z,98466.22
2023-03-26T10:50:10.438Z,98469.50
2023-03-26T10:52:55.045Z,98460.63
2023-03-26T10:55:31.356Z,98471.84
2023-03-26T10:58:29.316Z,98466.25
2023-03-26T11:01:27.543Z,98459.16
2023-03-26T11:03:56.204Z,98487.78
2023-03-26T11:06:54.268Z,98480.16
2023-03-26T11:09:36.001Z,98434.53
2023-03-26T11:12:30.399Z,98427.97
2023-03-26T11:15:07.573Z,98510.25
2023-03-26T11:18:04.950Z,98537.94
2023-03-26T11:20:49.552Z,98537.16
2023-03-26T11:23:42.998Z,98494.03
2023-03-26T11:26:18.539Z,98503.94
2023-03-26T11:29:03.783Z,98540.16
2023-03-26T11:31:44.508Z,98559.44
2023-03-26T11:34:15.519Z,98558.53
2023-03-26T11:36:52.713Z,98555.16
2023-03-26T11:39:26.168Z,98485.00
2023-03-26T11:42:04.497Z,98548.69
2023-03-26T11:44:38.098Z,98477.88
2023-03-26T11:47:09.821Z,98486.72
2023-03-26T11:49:37.515Z,98599.47
2023-03-26T11:52:03.994Z,98571.56
2023-03-26T11:54:30.607Z,98580.03
2023-03-26T11:57:07.512Z,98599.03
2023-03-26T11:59:45.296Z,98618.78
2023-03-26T12:02:25.058Z,98575.50
2023-03-26T12:05:02.694Z,98602.84
2023-03-26T12:07:35.089Z,98601.31
2023-03-26T12:10:15.447Z,98539.75
2023-03-26T12:12:47.340Z,98629.75
2023-03-26T12:15:19.132Z,98538.25
2023-03-26T12:17:48.346Z,98626.22
2023-03-26T12:20:31.802Z,98618.53
2023-03-26T12:23:00.219Z,98635.84
2023-03-26T12:25:30.372Z,98630.34
2023-03-26T12:28:04.624Z,98639.72
2023-03-26T12:30:39.886Z,98593.31
2023-03-26T12:33:15.194Z,98565.59
2023-03-26T12:35:42.208Z,98651.25
2023-03-26T12:38:25.379Z,98659.81
2023-03-26T12:44:42.702Z,98629.34
2023-03-26T12:44:54.713Z,98649.94
2023-03-26T12:48:00.848Z,98667.66
2023-03-26T12:50:15.763Z,98654.06
2023-03-26T12:53:07.985Z,98669.56
2023-03-26T12:56:13.226Z,98681.69
2023-03-26T12:59:06.978Z,98681.06
2023-03-26T13:02:01.701Z,98712.47
2023-03-26T13:04:58.624Z,98715.75
2023-03-26T13:07:40.199Z,98752.88
2023-03-26T13:10:32.892Z,98760.78
2023-03-26T13:13:27.230Z,98731.72
2023-03-26T13:16:04.453Z,98783.00
2023-03-26T13:18:59.800Z,98790.56
2023-03-26T13:21:31.250Z,98805.69
2023-03-26T13:24:00.769Z,98813.31
2023-03-26T13:26:52.331Z,98822.09
2023-03-26T13:29:25.490Z,98833.72
2023-03-26T13:32:22.860Z,98810.81
2023-03-26T13:34:59.752Z,98844.91
2023-03-26T13:37:45.171Z,98865.78
2023-03-26T13:40:26.920Z,98848.13
2023-03-26T13:43:25.438Z,98885.50
2023-03-26T13:45:59.301Z,98885.09
2023-03-26T13:48:30.056Z,98846.94
2023-03-26T13:51:09.282Z,98900.34
2023-03-26T13:54:05.879Z,98901.63
2023-03-26T13:56:40.475Z,98904.44
2023-03-26T13:59:24.034Z,98899.72
2023-03-26T14:02:00.505Z,98915.19
2023-03-26T14:04:33.738Z,98929.91
2023-03-26T14:07:08.068Z,98920.69
2023-03-26T14:09:38.164Z,98923.59
2023-03-26T14:12:24.133Z,98942.28
2023-03-26T14:15:18.691Z,98926.34
2023-03-26T14:17:51.085Z,98948.66
2023-03-26T14:20:17.529Z,98923.97
2023-03-26T14:22:50.200Z,98963.56
2023-03-26T14:25:32.165Z,98960.09
2023-03-26T14:28:49.731Z,99001.84
2023-03-26T14:31:22.057Z,98986.50
2023-03-26T14:34:12.444Z,99033.75
2023-03-26T14:36:47.880Z,99006.56
2023-03-26T14:39:18.922Z,99040.00
2023-03-26T14:41:52.946Z,99035.59
2023-03-26T14:44:48.462Z,99088.44
2023-03-26T14:47:17.402Z,99115.66
2023-03-26T14:49:52.825Z,99116.97
2023-03-26T14:52:48.753Z,99139.22
2023-03-26T14:55:37.050Z,99176.94
2023-03-26T14:58:25.557Z,99190.63
2023-03-26T15:04:47.070Z,99222.06
2023-03-26T15:07:51.600Z,99262.88
2023-03-26T15:10:42.623Z,99265.78
2023-03-26T15:13:48.454Z,99314.69
2023-03-26T15:16:43.087Z,99348.09
2023-03-26T15:19:18.861Z,99358.56
2023-03-26T15:22:10.055Z,99411.84
2023-03-26T15:25:00.325Z,99443.34
2023-03-26T15:27:56.834Z,99482.94
2023-03-26T15:30:41.849Z,99495.94
2023-03-26T15:33:49.193Z,99508.75
2023-03-26T15:36:53.199Z,99525.72
2023-03-26T15:40:00.548Z,99517.22
2023-03-26T15:43:02.503Z,99558.34
2023-03-26T15:45:51.844Z,99526.53
2023-03-26T15:48:31.252Z,99543.84
2023-03-26T15:51:19.834Z,99599.53
2023-03-26T15:54:20.915Z,99601.31
2023-03-26T15:57:27.458Z,99618.69
2023-03-26T16:00:20.413Z,99628.00
2023-03-26T16:03:11.107Z,99633.16
2023-03-26T16:06:06.811Z,99659.38
2023-03-26T16:08:39.260Z,99662.97
2023-03-26T16:11:06.372Z,99642.91
2023-03-26T16:13:39.718Z,99677.22
2023-03-26T16:16:15.371Z,99662.09
2023-03-26T16:18:45.186Z,99695.84
2023-03-26T16:21:36.649Z,99702.53
2023-03-26T16:24:03.347Z,99710.72
2023-03-26T16:26:47.475Z,99673.66
2023-03-26T16:29:21.155Z,99731.28
2023-03-26T16:32:25.161Z,99764.03
2023-03-26T16:35:10.340Z,99788.97
2023-03-26T16:37:50.912Z,99779.56
2023-03-26T16:40:17.427Z,99791.19
2023-03-26T16:43:05.653Z,99792.16
2023-03-26T16:45:35.793Z,99788.66
2023-03-26T16:48:05.157Z,99796.91
2023-03-26T16:50:48.805Z,99759.53
2023-03-26T16:53:27.068Z,99781.06
2023-03-26T16:55:59.289Z,99854.47
2023-03-26T16:58:40.924Z,99832.84
2023-03-26T17:01:32.302Z,99892.88
2023-03-26T17:04:04.692Z,99898.84
2023-03-26T17:06:31.121Z,99922.22
2023-03-26T17:09:30.667Z,99913.22
2023-03-26T17:11:59.761Z,99914.44
2023-03-26T17:14:38.027Z,99855.44
2023-03-26T17:17:32.270Z,99954.41
2023-03-26T17:20:34.294Z,99976.22
2023-03-26T17:23:25.208Z,100011.94
2023-03-26T17:26:08.408Z,99959.84
2023-03-26T17:28:59.003Z,100061.88
2023-03-26T17:31:45.101Z,100087.00
2023-03-26T17:34:39.493Z,100102.56
2023-03-26T17:37:18.038Z,100105.41
2023-03-26T17:39:44.702Z,100116.16
2023-03-26T17:42:18.690Z,100114.38
2023-03-26T17:45:09.971Z,100123.94
2023-03-26T17:47:40.960Z,100147.22
2023-03-26T17:50:14.463Z,100161.66
2023-03-26T17:52:45.715Z,100137.78
2023-03-26T17:55:17.402Z,100210.09
2023-03-26T17:57:47.344Z,100168.31
2023-03-26T18:00:21.829Z,100145.59
2023-03-26T18:03:19.010Z,100187.50
2023-03-26T18:05:47.252Z,100188.47
2023-03-26T18:08:29.064Z,100252.66
2023-03-26T18:11:20.239Z,100186.91
2023-03-26T18:14:02.489Z,100258.72
2023-03-26T18:16:36.335Z,100218.66
2023-03-26T18:19:10.060Z,100313.25
2023-03-26T18:21:39.980Z,100322.16
2023-03-26T18:24:13.520Z,100337.50
2023-03-26T18:26:43.428Z,100342.34
2023-03-26T18:29:23.964Z,100354.44
2023-03-26T18:32:21.373Z,100382.72
2023-03-26T18:34:50.767Z,100316.88
2023-03-26T18:37:24.034Z,100400.53
2023-03-26T18:40:00.891Z,100365.00
2023-03-26T18:42:30.200Z,100393.16
2023-03-26T18:44:59.911Z,100433.69
2023-03-26T18:47:30.065Z,100381.03
2023-03-26T18:49:58.222Z,100463.50
2023-03-26T18:52:28.173Z,100480.19
2023-03-26T18:54:56.614Z,100460.19
2023-03-26T18:57:28.981Z,100512.53
2023-03-26T19:00:06.124Z,100515.22
2023-03-26T19:02:33.020Z,100552.72
2023-03-26T19:05:01.838Z,100560.69
2023-03-26T19:07:29.841Z,100593.81
2023-03-26T19:09:56.904Z,100512.16
2023-03-26T19:12:30.025Z,100599.81
2023-03-26T19:15:11.254Z,100584.88
2023-03-26T19:17:47.314Z,100603.94
2023-03-26T19:20:21.994Z,100603.84
2023-03-26T19:22:49.969Z,100547.72
2023-03-26T19:25:28.030Z,100608.59
2023-03-26T19:27:54.958Z,100609.78
2023-03-26T19:30:32.991Z,100617.25
2023-03-26T19:33:11.892Z,100614.47
2023-03-26T19:35:41.273Z,100622.06
2023-03-26T19:38:25.165Z,100577.34
2023-03-26T19:40:55.026Z,100653.97
2023-03-26T19:43:22.943Z,100666.75
2023-03-26T19:45:59.878Z,100579.81
2023-03-26T19:48:45.928Z,100666.19
2023-03-26T19:51:20.135Z,100667.16
2023-03-26T19:53:52.003Z,100574.25
2023-03-26T19:56:19.470Z,100596.91
2023-03-26T19:58:46.308Z,100657.56
2023-03-26T20:01:18.638Z,100649.06
2023-03-26T20:03:48.892Z,100663.81
2023-03-26T20:06:18.273Z,100666.84
2023-03-26T20:08:45.233Z,100598.88
2023-03-26T20:11:23.716Z,100650.84
2023-03-26T20:13:50.787Z,100603.91
2023-03-26T20:16:26.051Z,100667.88
2023-03-26T20:18:54.542Z,100666.97
2023-03-26T20:21:21.120Z,100675.28
2023-03-26T20:23:47.672Z,100690.72
2023-03-26T20:26:16.413Z,100709.09
2023-03-26T20:28:48.574Z,100696.16
2023-03-26T20:31:22.219Z,100730.16
2023-03-26T20:33:50.147Z,100693.53
2023-03-26T20:36:33.136Z,100726.69
2023-03-26T20:39:04.063Z,100752.88
2023-03-26T20:41:48.595Z,100697.59
2023-03-26T20:44:17.752Z,100712.94
2023-03-26T20:46:45.444Z,100775.75
2023-03-26T20:49:12.728Z,100736.47
2023-03-26T20:51:39.822Z,100765.25
2023-03-26T20:54:06.319Z,100809.47
2023-03-26T20:56:34.086Z,100800.91
2023-03-26T20:59:09.738Z,100801.53
2023-03-26T21:01:37.529Z,100741.38
2023-03-26T21:04:04.157Z,100792.88
2023-03-26T21:06:30.801Z,100818.28
2023-03-26T21:08:57.677Z,100829.59
2023-03-26T21:11:39.510Z,100857.91
2023-03-26T21:14:33.879Z,100856.47
2023-03-26T21:17:00.950Z,100857.75
2023-03-26T21:19:27.774Z,100864.53
2023-03-26T21:21:57.206Z,100884.09
2023-03-26T21:24:34.335Z,100900.75
2023-03-26T21:27:19.223Z,100902.41
2023-03-26T21:29:45.984Z,100908.69
2023-03-26T21:32:12.798Z,100910.97
2023-03-26T21:34:42.058Z,100913.69
2023-03-26T21:37:16.036Z,100923.72
2023-03-26T21:39:42.687Z,100910.63
2023-03-26T21:42:11.031Z,100863.25
2023-03-26T21:44:37.989Z,100851.78
2023-03-26T21:47:06.211Z,100913.03
2023-03-26T21:49:34.043Z,100840.50
2023-03-26T21:52:00.998Z,100904.63
2023-03-26T21:54:29.921Z,100843.06
2023-03-26T21:57:20.564Z,100900.75
2023-03-26T22:00:08.179Z,100918.38
2023-03-26T22:02:55.035Z,100909.66
2023-03-26T22:05:54.681Z,100918.38
2023-03-26T22:08:32.685Z,100911.44
2023-03-26T22:10:59.184Z,100915.63
2023-03-26T22:13:25.774Z,100900.25
2023-03-26T22:15:52.362Z,100912.75
2023-03-26T22:18:18.951Z,100907.72
2023-03-26T22:20:46.228Z,100893.66
2023-03-26T22:23:12.783Z,100915.16
2023-03-26T22:25:39.562Z,100907.38
2023-03-26T22:28:06.188Z,100916.63
2023-03-26T22:30:33.558Z,100897.88
2023-03-26T22:33:00.129Z,100845.84
2023-03-26T22:35:26.799Z,100899.47
2023-03-26T22:37:53.391Z,100882.03
2023-03-26T22:40:27.885Z,100928.56
2023-03-26T22:42:54.424Z,100930.50
2023-03-26T22:45:21.172Z,100896.09
2023-03-26T22:47:47.718Z,100923.53
2023-03-26T22:50:14.464Z,100910.94
2023-03-26T22:52:41.099Z,100914.19
2023-03-26T22:55:08.847Z,100943.78
2023-03-26T22:57:35.425Z,100945.38
2023-03-26T23:00:02.107Z,100957.34
2023-03-26T23:02:28.664Z,100965.75
2023-03-26T23:04:55.185Z,100969.78
2023-03-26T23:07:21.773Z,100957.16
2023-03-26T23:09:48.343Z,100970.59
2023-03-26T23:12:14.801Z,100978.34
2023-03-26T23:14:41.357Z,100985.63
2023-03-26T23:17:07.895Z,100950.38
2023-03-26T23:19:34.489Z,100992.28
2023-03-26T23:22:00.960Z,100932.13
2023-03-26T23:24:27.499Z,100989.50
2023-03-26T23:26:54.057Z,100990.97
2023-03-26T23:29:20.522Z,101017.16
2023-03-26T23:31:47.376Z,101001.63
2023-03-26T23:34:14.265Z,101027.84
2023-03-26T23:36:40.913Z,101033.97
2023-03-26T23:39:07.485Z,101003.06
2023-03-26T23:41:34.046Z,101061.66
2023-03-26T23:44:00.709Z,101061.81
2023-03-26T23:46:28.629Z,101070.38
2023-03-26T23:48:55.280Z,101076.03
2023-03-26T23:51:21.961Z,101066.03
2023-03-26T23:53:49.443Z,101076.53
2023-03-26T23:56:16.529Z,101070.69
2023-03-26T23:58:43.113Z,101075.25
